createdAt,value
2023-05-10T00:01:37.230Z,49768.88
2023-05-10T00:04:04.241Z,49774.84
2023-05-10T00:06:31.321Z,49780.84
2023-05-10T00:08:58.137Z,49778.84
2023-05-10T00:11:25.123Z,49778.84
2023-05-10T00:13:51.867Z,49794.78
2023-05-10T00:16:18.737Z,49794.78
2023-05-10T00:18:45.570Z,49764.88
2023-05-10T00:21:12.234Z,49760.91
2023-05-10T00:23:39.755Z,49766.88
2023-05-10T00:26:06.428Z,49729.00
2023-05-10T00:28:33.108Z,49784.81
2023-05-10T00:30:59.940Z,49774.84
2023-05-10T00:33:26.734Z,49764.88
2023-05-10T00:35:53.621Z,49792.78
2023-05-10T00:38:20.308Z,49776.84
2023-05-10T00:40:47.120Z,49786.81
2023-05-10T00:43:21.825Z,49792.78
2023-05-10T00:45:48.591Z,49784.81
2023-05-10T00:48:15.471Z,49774.84
2023-05-10T00:50:42.577Z,49766.88
2023-05-10T00:53:10.163Z,49810.75
2023-05-10T00:55:37.141Z,49758.91
2023-05-10T00:58:04.073Z,49784.81
2023-05-10T01:00:31.134Z,49786.81
2023-05-10T01:02:58.326Z,49764.88
2023-05-10T01:05:25.833Z,49812.72
2023-05-10T01:07:52.616Z,49790.81
2023-05-10T01:10:19.604Z,49812.72
2023-05-10T01:12:47.784Z,49804.75
2023-05-10T01:15:16.981Z,49830.66
2023-05-10T01:17:48.595Z,49788.81
2023-05-10T01:20:16.475Z,49780.84
2023-05-10T01:22:43.238Z,49788.81
2023-05-10T01:25:38.842Z,49786.81
2023-05-10T01:28:33.430Z,49808.75
2023-05-10T01:31:45.194Z,49780.84
2023-05-10T01:34:21.846Z,49784.81
2023-05-10T01:37:08.495Z,49776.84
2023-05-10T01:40:16.363Z,49774.84
2023-05-10T01:42:59.413Z,49744.94
2023-05-10T01:45:32.914Z,49768.88
2023-05-10T01:48:12.260Z,49798.78
2023-05-10T01:50:43.025Z,49770.88
2023-05-10T01:53:13.940Z,49792.78
2023-05-10T01:55:56.205Z,49784.81
2023-05-10T01:58:32.797Z,49784.81
2023-05-10T02:01:02.542Z,49786.81
2023-05-10T02:03:31.469Z,49766.88
2023-05-10T02:05:59.982Z,49758.91
2023-05-10T02:08:27.962Z,49802.75
2023-05-10T02:10:59.619Z,49778.84
2023-05-10T02:13:28.369Z,49738.97
2023-05-10T02:15:56.665Z,49798.78
2023-05-10T02:18:24.986Z,49806.75
2023-05-10T02:20:54.813Z,49778.84
2023-05-10T02:23:22.635Z,49814.72
2023-05-10T02:25:51.007Z,49806.75
2023-05-10T02:28:19.119Z,49796.78
2023-05-10T02:30:47.981Z,49778.84
2023-05-10T02:33:15.602Z,49778.84
2023-05-10T02:35:42.770Z,49768.88
2023-05-10T02:38:11.238Z,49786.81
2023-05-10T02:40:38.968Z,49806.75
2023-05-10T02:43:10.243Z,49750.94
2023-05-10T02:45:39.895Z,49778.84
2023-05-10T02:48:07.134Z,49774.84
2023-05-10T02:50:35.012Z,49770.88
2023-05-10T02:53:04.881Z,49794.78
2023-05-10T02:55:36.479Z,49798.78
2023-05-10T02:58:04.747Z,49770.88
2023-05-10T03:00:31.819Z,49806.75
2023-05-10T03:02:58.776Z,49794.78
2023-05-10T03:05:26.371Z,49818.72
2023-05-10T03:07:54.070Z,49786.81
2023-05-10T03:10:27.821Z,49790.81
2023-05-10T03:13:30.424Z,49778.84
2023-05-10T03:16:05.579Z,49802.75
2023-05-10T03:18:43.023Z,49792.78
2023-05-10T03:21:13.567Z,49806.75
2023-05-10T03:23:51.688Z,49786.81
2023-05-10T03:26:24.668Z,49772.84
2023-05-10T03:28:54.301Z,49774.84
2023-05-10T03:31:22.004Z,49774.84
2023-05-10T03:33:49.790Z,49794.78
2023-05-10T03:36:21.993Z,49772.84
2023-05-10T03:38:48.821Z,49778.84
2023-05-10T03:41:16.218Z,49826.69
2023-05-10T03:43:42.953Z,49776.84
2023-05-10T03:46:09.589Z,49812.72
2023-05-10T03:48:36.499Z,49788.81
2023-05-10T03:51:03.221Z,49786.81
2023-05-10T03:53:30.296Z,49804.75
2023-05-10T03:55:56.964Z,49764.88
2023-05-10T03:58:24.842Z,49810.75
2023-05-10T04:00:52.822Z,49790.81
2023-05-10T04:03:19.758Z,49790.81
2023-05-10T04:05:46.529Z,49792.78
2023-05-10T04:08:13.223Z,49792.78
2023-05-10T04:10:40.752Z,49784.81
2023-05-10T04:13:07.502Z,49794.78
2023-05-10T04:15:34.238Z,49798.78
2023-05-10T04:18:01.249Z,49784.81
2023-05-10T04:20:27.920Z,49794.78
2023-05-10T04:22:54.795Z,49838.66
2023-05-10T04:25:21.662Z,49806.75
2023-05-10T04:27:48.402Z,49798.78
2023-05-10T04:30:15.402Z,49802.75
2023-05-10T04:32:42.369Z,49794.78
2023-05-10T04:35:11.062Z,49816.72
2023-05-10T04:37:37.880Z,49762.88
2023-05-10T04:40:05.134Z,49776.84
2023-05-10T04:42:31.851Z,49786.81
2023-05-10T04:44:58.498Z,49788.81
2023-05-10T04:47:25.196Z,49764.88
2023-05-10T04:49:51.946Z,49750.94
2023-05-10T04:52:18.948Z,49758.91
2023-05-10T04:54:45.630Z,49762.88
2023-05-10T04:57:12.400Z,49808.75
2023-05-10T04:59:39.084Z,49798.78
2023-05-10T05:02:06.460Z,49782.81
2023-05-10T05:04:33.284Z,49784.81
2023-05-10T05:07:00.117Z,49768.88
2023-05-10T05:09:26.827Z,49796.78
2023-05-10T05:11:53.457Z,49806.75
2023-05-10T05:14:21.958Z,49790.81
2023-05-10T05:16:48.779Z,49806.75
2023-05-10T05:19:15.477Z,49836.66
2023-05-10T05:21:42.242Z,49798.78
2023-05-10T05:24:09.625Z,49802.75
2023-05-10T05:26:36.324Z,49790.81
2023-05-10T05:29:03.275Z,49774.84
2023-05-10T05:31:30.163Z,49772.84
2023-05-10T05:33:56.939Z,49778.84
2023-05-10T05:36:23.775Z,49782.81
2023-05-10T05:38:50.616Z,49752.91
2023-05-10T05:41:17.324Z,49810.75
2023-05-10T05:43:43.934Z,49766.88
2023-05-10T05:46:10.782Z,49762.88
2023-05-10T05:48:37.487Z,49762.88
2023-05-10T05:51:06.543Z,49798.78
2023-05-10T05:53:33.916Z,49790.81
2023-05-10T05:56:00.693Z,49778.84
2023-05-10T05:58:27.881Z,49792.78
2023-05-10T06:00:55.034Z,49764.88
2023-05-10T06:03:21.891Z,49768.88
2023-05-10T06:05:49.123Z,49786.81
2023-05-10T06:08:15.983Z,49764.88
2023-05-10T06:10:42.667Z,49758.91
2023-05-10T06:13:09.550Z,49784.81
2023-05-10T06:15:36.457Z,49754.91
2023-05-10T06:18:03.211Z,49800.78
2023-05-10T06:20:29.942Z,49750.94
2023-05-10T06:22:56.665Z,49786.81
2023-05-10T06:25:23.282Z,49778.84
2023-05-10T06:27:52.920Z,49780.84
2023-05-10T06:30:21.263Z,49770.88
2023-05-10T06:32:48.055Z,49790.81
2023-05-10T06:35:14.888Z,49764.88
2023-05-10T06:37:42.007Z,49782.81
2023-05-10T06:40:09.175Z,49798.78
2023-05-10T06:42:35.878Z,49788.81
2023-05-10T06:45:03.463Z,49786.81
2023-05-10T06:47:30.254Z,49786.81
2023-05-10T06:49:57.077Z,49758.91
2023-05-10T06:52:24.413Z,49784.81
2023-05-10T06:54:51.409Z,49794.78
2023-05-10T06:57:30.598Z,49802.75
2023-05-10T06:59:59.189Z,49782.81
2023-05-10T07:02:25.965Z,49774.84
2023-05-10T07:04:53.168Z,49762.88
2023-05-10T07:07:20.092Z,49800.78
2023-05-10T07:09:46.874Z,49758.91
2023-05-10T07:12:15.039Z,49780.84
2023-05-10T07:14:42.829Z,49774.84
2023-05-10T07:17:09.895Z,49762.88
2023-05-10T07:19:36.980Z,49756.91
2023-05-10T07:22:04.112Z,49742.94
2023-05-10T07:24:32.288Z,49790.81
2023-05-10T07:26:59.097Z,49727.00
2023-05-10T07:29:26.237Z,49727.00
2023-05-10T07:31:53.070Z,49746.94
2023-05-10T07:34:19.899Z,49750.94
2023-05-10T07:36:46.787Z,49746.94
2023-05-10T07:39:18.645Z,49754.91
2023-05-10T07:41:51.448Z,49766.88
2023-05-10T07:44:20.154Z,49778.84
2023-05-10T07:46:47.618Z,49746.94
2023-05-10T07:49:14.480Z,49764.88
2023-05-10T07:51:41.285Z,49770.88
2023-05-10T07:54:07.901Z,49762.88
2023-05-10T07:56:35.563Z,49719.03
2023-05-10T07:59:04.949Z,49740.97
2023-05-10T08:01:33.456Z,49756.91
2023-05-10T08:04:00.253Z,49754.91
2023-05-10T08:06:31.026Z,49736.97
2023-05-10T08:08:58.422Z,49752.91
2023-05-10T08:11:25.902Z,49770.88
2023-05-10T08:13:52.929Z,49746.94
2023-05-10T08:16:19.894Z,49754.91
2023-05-10T08:18:48.011Z,49719.03
2023-05-10T08:21:15.925Z,49738.97
2023-05-10T08:23:44.711Z,49727.00
2023-05-10T08:26:11.824Z,49758.91
2023-05-10T08:28:38.619Z,49774.84
2023-05-10T08:31:06.200Z,49770.88
2023-05-10T08:33:33.086Z,49750.94
2023-05-10T08:35:59.876Z,49756.91
2023-05-10T08:38:26.991Z,49750.94
2023-05-10T08:40:59.777Z,49758.91
2023-05-10T08:43:31.047Z,49744.94
2023-05-10T08:46:02.188Z,49738.97
2023-05-10T08:48:31.141Z,49713.06
2023-05-10T08:51:00.380Z,49772.84
2023-05-10T08:53:28.259Z,49742.94
2023-05-10T08:55:55.060Z,49713.06
2023-05-10T08:58:21.898Z,49711.06
2023-05-10T09:00:51.914Z,49770.88
2023-05-10T09:03:18.972Z,49719.03
2023-05-10T09:05:46.160Z,49727.00
2023-05-10T09:08:14.474Z,49740.97
2023-05-10T09:10:43.277Z,49740.97
2023-05-10T09:13:11.842Z,49752.91
2023-05-10T09:15:39.750Z,49679.16
2023-05-10T09:18:06.517Z,49711.06
2023-05-10T09:20:33.316Z,49715.03
2023-05-10T09:22:59.980Z,49687.13
2023-05-10T09:25:26.667Z,49725.00
2023-05-10T09:27:53.786Z,49738.97
2023-05-10T09:30:28.653Z,49738.97
2023-05-10T09:32:56.492Z,49695.09
2023-05-10T09:35:25.899Z,49697.09
2023-05-10T09:37:56.061Z,49703.09
2023-05-10T09:40:24.627Z,49727.00
2023-05-10T09:43:01.626Z,49689.13
2023-05-10T09:45:30.537Z,49723.03
2023-05-10T09:47:58.262Z,49709.06
2023-05-10T09:50:25.290Z,49746.94
2023-05-10T09:52:56.226Z,49685.13
2023-05-10T09:55:26.308Z,49697.09
2023-05-10T09:58:03.363Z,49719.03
2023-05-10T10:00:37.049Z,49675.19
2023-05-10T10:03:04.694Z,49699.09
2023-05-10T10:05:32.969Z,49740.97
2023-05-10T10:08:00.187Z,49754.91
2023-05-10T10:10:28.282Z,49685.13
2023-05-10T10:12:55.666Z,49705.06
2023-05-10T10:15:23.538Z,49689.13
2023-05-10T10:17:50.893Z,49711.06
2023-05-10T10:20:18.900Z,49715.03
2023-05-10T10:22:46.771Z,49695.09
2023-05-10T10:25:17.893Z,49715.03
2023-05-10T10:27:53.667Z,49734.97
2023-05-10T10:30:23.450Z,49703.09
2023-05-10T10:32:59.390Z,49707.06
2023-05-10T10:35:26.298Z,49679.16
2023-05-10T10:37:52.974Z,49762.88
2023-05-10T10:40:26.790Z,49717.03
2023-05-10T10:42:54.731Z,49719.03
2023-05-10T10:45:22.181Z,49742.94
2023-05-10T10:47:49.269Z,49691.13
2023-05-10T10:50:17.291Z,49756.91
2023-05-10T10:52:45.171Z,49746.94
2023-05-10T10:55:20.026Z,49695.09
2023-05-10T10:57:52.880Z,49733.00
2023-05-10T11:00:41.014Z,49703.09
2023-05-10T11:03:18.305Z,49707.06
2023-05-10T11:05:58.960Z,49703.09
2023-05-10T11:08:30.692Z,49736.97
2023-05-10T11:11:00.147Z,49740.97
2023-05-10T11:13:35.149Z,49723.03
2023-05-10T11:16:14.947Z,49715.03
2023-05-10T11:18:52.539Z,49731.00
2023-05-10T11:21:19.287Z,49709.06
2023-05-10T11:23:45.844Z,49729.00
2023-05-10T11:26:12.992Z,49713.06
2023-05-10T11:28:47.510Z,49685.13
2023-05-10T11:31:16.179Z,49715.03
2023-05-10T11:33:48.092Z,49719.03
2023-05-10T11:36:20.339Z,49675.19
2023-05-10T11:38:48.283Z,49723.03
2023-05-10T11:41:14.816Z,49709.06
2023-05-10T11:43:42.390Z,49713.06
2023-05-10T11:46:12.188Z,49707.06
2023-05-10T11:48:43.266Z,49723.03
2023-05-10T11:51:11.476Z,49703.09
2023-05-10T11:53:39.108Z,49695.09
2023-05-10T11:56:10.685Z,49729.00
2023-05-10T11:58:39.422Z,49713.06
2023-05-10T12:01:07.649Z,49705.06
2023-05-10T12:03:35.294Z,49715.03
2023-05-10T12:06:03.533Z,49707.06
2023-05-10T12:08:31.923Z,49671.19
2023-05-10T12:11:07.683Z,49681.16
2023-05-10T12:13:39.076Z,49697.09
2023-05-10T12:16:16.954Z,49713.06
2023-05-10T12:18:43.782Z,49685.13
2023-05-10T12:21:12.703Z,49711.06
2023-05-10T12:23:40.574Z,49719.03
2023-05-10T12:26:07.445Z,49693.13
2023-05-10T12:28:34.672Z,49707.06
2023-05-10T12:31:03.661Z,49687.13
2023-05-10T12:33:50.268Z,49669.19
2023-05-10T12:36:17.765Z,49635.31
2023-05-10T12:38:49.063Z,49683.16
2023-05-10T12:41:17.874Z,49697.09
2023-05-10T12:43:45.057Z,49695.09
2023-05-10T12:46:14.410Z,49681.16
2023-05-10T12:48:42.385Z,49677.16
2023-05-10T12:51:10.539Z,49655.25
2023-05-10T12:53:37.787Z,49635.31
2023-05-10T12:56:04.825Z,49639.28
2023-05-10T12:58:35.862Z,49653.25
2023-05-10T13:01:03.525Z,49635.31
2023-05-10T13:03:30.352Z,49655.25
2023-05-10T13:05:57.294Z,49675.19
2023-05-10T13:08:23.984Z,49657.22
2023-05-10T13:10:50.741Z,49615.38
2023-05-10T13:13:17.520Z,49645.28
2023-05-10T13:15:44.213Z,49643.28
2023-05-10T13:18:11.135Z,49657.22
2023-05-10T13:20:37.939Z,49649.25
2023-05-10T13:23:04.669Z,49649.25
2023-05-10T13:25:31.752Z,49657.22
2023-05-10T13:27:58.475Z,49689.13
2023-05-10T13:30:25.137Z,49673.19
2023-05-10T13:32:51.891Z,49673.19
2023-05-10T13:35:19.011Z,49683.16
2023-05-10T13:37:45.698Z,49667.19
2023-05-10T13:40:12.640Z,49653.25
2023-05-10T13:42:39.387Z,49673.19
2023-05-10T13:45:06.901Z,49683.16
2023-05-10T13:47:33.873Z,49633.31
2023-05-10T13:50:00.552Z,49659.22
2023-05-10T13:52:27.635Z,49693.13
2023-05-10T13:54:56.259Z,49687.13
2023-05-10T13:57:24.930Z,49671.19
2023-05-10T13:59:51.834Z,49671.19
2023-05-10T14:02:18.592Z,49671.19
2023-05-10T14:04:45.342Z,49645.28
2023-05-10T14:07:12.067Z,49697.09
2023-05-10T14:09:38.725Z,49673.19
2023-05-10T14:12:05.503Z,49663.22
2023-05-10T14:14:32.212Z,49641.28
2023-05-10T14:17:00.345Z,49627.31
2023-05-10T14:19:28.145Z,49671.19
2023-05-10T14:21:54.756Z,49703.09
2023-05-10T14:24:21.418Z,49677.16
2023-05-10T14:26:48.180Z,49671.19
2023-05-10T14:29:14.813Z,49651.25
2023-05-10T14:31:41.722Z,49609.38
2023-05-10T14:34:08.449Z,49647.25
2023-05-10T14:36:35.106Z,49691.13
2023-05-10T14:39:01.840Z,49661.22
2023-05-10T14:41:28.611Z,49635.31
2023-05-10T14:43:55.276Z,49655.25
2023-05-10T14:46:21.991Z,49651.25
2023-05-10T14:48:48.741Z,49663.22
2023-05-10T14:51:15.390Z,49673.19
2023-05-10T14:53:42.086Z,49663.22
2023-05-10T14:56:08.767Z,49663.22
2023-05-10T14:58:35.486Z,49685.13
2023-05-10T15:01:02.339Z,49657.22
2023-05-10T15:03:29.806Z,49695.09
2023-05-10T15:05:58.647Z,49645.28
2023-05-10T15:08:25.709Z,49627.31
2023-05-10T15:10:52.773Z,49681.16
2023-05-10T15:13:19.419Z,49639.28
2023-05-10T15:15:46.147Z,49683.16
2023-05-10T15:18:12.913Z,49679.16
2023-05-10T15:20:39.631Z,49667.19
2023-05-10T15:23:06.348Z,49671.19
2023-05-10T15:25:35.830Z,49703.09
2023-05-10T15:28:03.667Z,49665.22
2023-05-10T15:30:30.379Z,49679.16
2023-05-10T15:32:57.792Z,49689.13
2023-05-10T15:35:24.782Z,49695.09
2023-05-10T15:37:51.539Z,49723.03
2023-05-10T15:40:18.390Z,49719.03
2023-05-10T15:42:45.326Z,49673.19
2023-05-10T15:45:12.854Z,49671.19
2023-05-10T15:47:40.569Z,49723.03
2023-05-10T15:50:07.634Z,49685.13
2023-05-10T15:52:34.647Z,49679.16
2023-05-10T15:55:01.352Z,49691.13
2023-05-10T15:57:28.043Z,49683.16
2023-05-10T15:59:54.750Z,49689.13
2023-05-10T16:02:22.632Z,49659.22
2023-05-10T16:04:49.766Z,49683.16
2023-05-10T16:07:16.400Z,49663.22
2023-05-10T16:09:43.137Z,49693.13
2023-05-10T16:12:09.924Z,49709.06
2023-05-10T16:14:36.636Z,49635.31
2023-05-10T16:17:04.660Z,49705.06
2023-05-10T16:19:31.707Z,49707.06
2023-05-10T16:21:58.458Z,49681.16
2023-05-10T16:24:26.241Z,49713.06
2023-05-10T16:26:52.976Z,49733.00
2023-05-10T16:29:19.692Z,49693.13
2023-05-10T16:31:46.387Z,49675.19
2023-05-10T16:34:13.170Z,49669.19
2023-05-10T16:36:39.828Z,49691.13
2023-05-10T16:39:06.796Z,49665.22
2023-05-10T16:41:34.392Z,49673.19
2023-05-10T16:44:01.686Z,49705.06
2023-05-10T16:46:28.542Z,49715.03
2023-05-10T16:48:56.039Z,49675.19
2023-05-10T16:51:22.825Z,49683.16
2023-05-10T16:53:49.826Z,49667.19
2023-05-10T16:56:18.432Z,49707.06
2023-05-10T16:58:47.568Z,49687.13
2023-05-10T17:01:14.228Z,49675.19
2023-05-10T17:03:41.526Z,49715.03
2023-05-10T17:06:08.793Z,49715.03
2023-05-10T17:08:35.693Z,49715.03
2023-05-10T17:11:03.897Z,49699.09
2023-05-10T17:13:31.933Z,49679.16
2023-05-10T17:15:58.762Z,49685.13
2023-05-10T17:18:26.690Z,49717.03
2023-05-10T17:20:53.346Z,49715.03
2023-05-10T17:23:20.083Z,49657.22
2023-05-10T17:25:46.784Z,49687.13
2023-05-10T17:28:13.415Z,49681.16
2023-05-10T17:30:40.280Z,49709.06
2023-05-10T17:33:06.951Z,49695.09
2023-05-10T17:35:34.120Z,49723.03
2023-05-10T17:38:00.974Z,49695.09
2023-05-10T17:40:27.757Z,49711.06
2023-05-10T17:42:54.503Z,49731.00
2023-05-10T17:45:21.249Z,49713.06
2023-05-10T17:47:48.019Z,49681.16
2023-05-10T17:50:14.856Z,49679.16
2023-05-10T17:52:41.528Z,49683.16
2023-05-10T17:55:08.693Z,49707.06
2023-05-10T17:57:38.055Z,49731.00
2023-05-10T18:00:06.583Z,49705.06
2023-05-10T18:02:33.319Z,49691.13
2023-05-10T18:05:01.412Z,49723.03
2023-05-10T18:07:30.063Z,49707.06
2023-05-10T18:09:58.075Z,49703.09
2023-05-10T18:12:24.638Z,49705.06
2023-05-10T18:14:51.664Z,49687.13
2023-05-10T18:17:18.437Z,49727.00
2023-05-10T18:19:45.123Z,49677.16
2023-05-10T18:22:11.807Z,49695.09
2023-05-10T18:24:39.899Z,49691.13
2023-05-10T18:27:08.766Z,49723.03
2023-05-10T18:29:36.242Z,49699.09
2023-05-10T18:32:03.081Z,49693.13
2023-05-10T18:34:29.705Z,49736.97
2023-05-10T18:36:56.654Z,49711.06
2023-05-10T18:39:24.347Z,49725.00
2023-05-10T18:41:51.212Z,49711.06
2023-05-10T18:44:19.107Z,49719.03
2023-05-10T18:46:46.445Z,49679.16
2023-05-10T18:49:13.325Z,49715.03
2023-05-10T18:51:40.143Z,49711.06
2023-05-10T18:54:07.347Z,49721.03
2023-05-10T18:56:34.021Z,49729.00
2023-05-10T18:59:00.809Z,49727.00
2023-05-10T19:01:27.578Z,49740.97
2023-05-10T19:03:54.234Z,49719.03
2023-05-10T19:06:21.008Z,49681.16
2023-05-10T19:08:47.618Z,49719.03
2023-05-10T19:11:14.254Z,49707.06
2023-05-10T19:13:40.945Z,49711.06
2023-05-10T19:16:14.325Z,49717.03
2023-05-10T19:18:41.229Z,49748.94
2023-05-10T19:21:10.451Z,49719.03
2023-05-10T19:23:40.360Z,49733.00
2023-05-10T19:26:09.965Z,49681.16
2023-05-10T19:28:37.826Z,49703.09
2023-05-10T19:31:04.563Z,49742.94
2023-05-10T19:33:31.662Z,49729.00
2023-05-10T19:35:58.403Z,49746.94
2023-05-10T19:38:25.909Z,49734.97
2023-05-10T19:40:58.320Z,49717.03
2023-05-10T19:43:29.582Z,49703.09
2023-05-10T19:46:02.193Z,49711.06
2023-05-10T19:48:29.251Z,49725.00
2023-05-10T19:51:03.682Z,49734.97
2023-05-10T19:53:31.632Z,49725.00
2023-05-10T19:56:04.807Z,49750.94
2023-05-10T19:58:31.534Z,49715.03
2023-05-10T20:00:58.200Z,49742.94
2023-05-10T20:03:25.115Z,49715.03
2023-05-10T20:05:52.086Z,49713.06
2023-05-10T20:08:18.837Z,49727.00
2023-05-10T20:10:45.908Z,49758.91
2023-05-10T20:13:12.692Z,49746.94
2023-05-10T20:15:39.386Z,49723.03
2023-05-10T20:18:06.220Z,49734.97
2023-05-10T20:20:32.908Z,49719.03
2023-05-10T20:22:59.602Z,49729.00
2023-05-10T20:25:26.361Z,49738.97
2023-05-10T20:27:53.168Z,49711.06
2023-05-10T20:30:20.226Z,49697.09
2023-05-10T20:32:47.313Z,49729.00
2023-05-10T20:35:13.994Z,49733.00
2023-05-10T20:37:40.794Z,49746.94
2023-05-10T20:40:08.013Z,49738.97
2023-05-10T20:42:34.670Z,49746.94
2023-05-10T20:45:01.355Z,49770.88
2023-05-10T20:47:28.145Z,49734.97
2023-05-10T20:49:54.834Z,49699.09
2023-05-10T20:52:23.354Z,49752.91
2023-05-10T20:54:51.165Z,49719.03
2023-05-10T20:57:17.899Z,49715.03
2023-05-10T20:59:44.566Z,49750.94
2023-05-10T21:02:11.247Z,49727.00
2023-05-10T21:04:38.404Z,49752.91
2023-05-10T21:07:05.119Z,49715.03
2023-05-10T21:09:31.863Z,49738.97
2023-05-10T21:11:58.605Z,49740.97
2023-05-10T21:14:25.614Z,49754.91
2023-05-10T21:16:52.449Z,49707.06
2023-05-10T21:19:19.297Z,49750.94
2023-05-10T21:21:46.049Z,49721.03
2023-05-10T21:24:12.746Z,49748.94
2023-05-10T21:26:39.710Z,49723.03
2023-05-10T21:29:06.942Z,49750.94
2023-05-10T21:31:33.738Z,49742.94
2023-05-10T21:34:01.013Z,49770.88
2023-05-10T21:36:27.979Z,49738.97
2023-05-10T21:38:54.778Z,49719.03
2023-05-10T21:41:21.843Z,49770.88
2023-05-10T21:43:48.597Z,49731.00
2023-05-10T21:46:15.424Z,49734.97
2023-05-10T21:48:42.143Z,49794.78
2023-05-10T21:51:09.269Z,49752.91
2023-05-10T21:53:37.574Z,49784.81
2023-05-10T21:56:04.650Z,49727.00
2023-05-10T21:58:31.421Z,49754.91
2023-05-10T22:00:58.097Z,49731.00
2023-05-10T22:03:24.939Z,49725.00
2023-05-10T22:05:51.669Z,49752.91
2023-05-10T22:08:18.388Z,49713.06
2023-05-10T22:10:45.033Z,49725.00
2023-05-10T22:13:11.695Z,49758.91
2023-05-10T22:15:38.488Z,49772.84
2023-05-10T22:18:05.621Z,49754.91
2023-05-10T22:20:32.648Z,49768.88
2023-05-10T22:22:59.518Z,49772.84
2023-05-10T22:25:26.153Z,49697.09
2023-05-10T22:27:52.815Z,49727.00
2023-05-10T22:30:20.252Z,49750.94
2023-05-10T22:32:47.228Z,49713.06
2023-05-10T22:35:13.889Z,49750.94
2023-05-10T22:37:40.590Z,49729.00
2023-05-10T22:40:07.878Z,49738.97
2023-05-10T22:42:34.547Z,49723.03
2023-05-10T22:45:01.324Z,49746.94
2023-05-10T22:47:28.064Z,49762.88
2023-05-10T22:49:55.600Z,49742.94
2023-05-10T22:52:22.281Z,49782.81
2023-05-10T22:54:48.993Z,49742.94
2023-05-10T22:57:16.396Z,49750.94
2023-05-10T22:59:43.391Z,49742.94
2023-05-10T23:02:10.203Z,49766.88
2023-05-10T23:04:37.152Z,49754.91
2023-05-10T23:07:03.849Z,49742.94
2023-05-10T23:09:30.481Z,49788.81
2023-05-10T23:11:57.478Z,49786.81
2023-05-10T23:14:24.157Z,49742.94
2023-05-10T23:16:51.166Z,49736.97
2023-05-10T23:19:17.840Z,49758.91
2023-05-10T23:21:44.520Z,49778.84
2023-05-10T23:24:11.683Z,49760.91
2023-05-10T23:26:38.387Z,49760.91
2023-05-10T23:29:05.066Z,49742.94
2023-05-10T23:31:31.784Z,49736.97
2023-05-10T23:33:58.475Z,49768.88
2023-05-10T23:36:25.162Z,49794.78
2023-05-10T23:38:51.766Z,49778.84
2023-05-10T23:41:18.893Z,49733.00
2023-05-10T23:43:45.595Z,49766.88
2023-05-10T23:46:12.358Z,49774.84
2023-05-10T23:48:39.070Z,49810.75
2023-05-10T23:51:05.791Z,49752.91
2023-05-10T23:53:32.476Z,49778.84
2023-05-10T23:55:59.192Z,49727.00
2023-05-10T23:58:25.861Z,49754.91
